Brooklyn Park, Minnesota
Current Conditions -  °F | °C
As of 1:53 PM on Monday 22 Dec 2014 (Local Time) from KMIC Reporting Station
Light Rain Light Rain  
Wind Chill: 30°   Ceiling: 900
Heat Index: 37°   Visibility: 2.5mi
Dew Point: 34°   Wind: 9mph
Humidity: 89%   Direction: 120°ESE
Pressure: 29.58"   Gusts: NA
Location:  45.11°N, 93.35°W
Report Text: KMIC 221953Z 12008KT 2 1/2SM -RA BR OVC009 03/01 A2958 RMK AO2 CIG 007V012 SLP025 P0004 T00280011
Loading
Personal Weather Stations






























Interactive Weather Map New forecast layout! Learn more

10-Day Weather Forecast

Advertisements
Track Severe Weather on mobile